This is the latest recevied weather packets stored in our database for station/object DO7CRZ-11. If no packets are shown the sender has not sent any weather packets the latest 10 day(s).
| Time | Temp. | Humidity | Pressure | Rain* | Wind** | Luminosity | Snow |
|---|---|---|---|---|---|---|---|
| 1778070131 | 20° C | 63% | 1006.4 hPa | 0 mm | - | 630 W/m² | - |
| 1778069534 | 18.89° C | 64% | 1006.4 hPa | 0 mm | - | 403 W/m² | - |
| 1778068929 | 18.89° C | 64% | 1006.4 hPa | 0 mm | - | 157 W/m² | - |
| 1778068330 | 18.89° C | 65% | 1006.5 hPa | 0 mm | - | 282 W/m² | - |
| 1778067733 | 18.33° C | 63% | 1006.4 hPa | 0 mm | - | 211 W/m² | - |
| 1778067126 | 18.89° C | 63% | 1006.4 hPa | 0 mm | - | 70 W/m² | - |
| 1778065933 | 19.44° C | 64% | 1006.3 hPa | 0 mm | - | 161 W/m² | - |
| 1778064729 | 20° C | 63% | 1006.3 hPa | 0 mm | - | 661 W/m² | - |
| 1778064132 | 20° C | 63% | 1006.3 hPa | 0 mm | - | 436 W/m² | - |
| 1778063536 | 19.44° C | 67% | 1006.3 hPa | 0 mm | - | 640 W/m² | - |
| 1778062929 | 18.89° C | 67% | 1006.4 hPa | 0 mm | - | 513 W/m² | - |
| 1778062332 | 18.89° C | 68% | 1006.4 hPa | 0 mm | - | 224 W/m² | - |
| 1778061128 | 18.33° C | 71% | 1006.3 hPa | 0 mm | - | 549 W/m² | - |
| 1778060531 | 17.78° C | 71% | 1006.2 hPa | 0 mm | - | 187 W/m² | - |
| 1778059333 | 18.89° C | 67% | 1006 hPa | 0 mm | - | 223 W/m² | - |
| 1778058733 | 18.89° C | 67% | 1005.9 hPa | 0 mm | - | 360 W/m² | - |
| 1778058134 | 18.33° C | 69% | 1005.9 hPa | 0 mm | - | 612 W/m² | - |
| 1778057528 | 18.89° C | 69% | 1005.8 hPa | 0 mm | - | 131 W/m² | - |
| 1778056931 | 18.89° C | 70% | 1005.7 hPa | 0 mm | - | 504 W/m² | - |
| 1778056334 | 18.89° C | 71% | 1005.6 hPa | 0 mm | - | 431 W/m² | - |
| 1778055727 | 18.33° C | 72% | 1005.4 hPa | 0 mm | - | 545 W/m² | - |
| 1778055130 | 17.78° C | 73% | 1005.4 hPa | 0 mm | - | 523 W/m² | - |
| 1778054533 | 17.78° C | 75% | 1005.6 hPa | 0 mm | - | 554 W/m² | - |
| 1778053329 | 17.22° C | 78% | 1005.6 hPa | 0 mm | - | 444 W/m² | - |
| 1778052733 | 16.67° C | 79% | 1005.5 hPa | 0 mm | - | 393 W/m² | - |
* Rain latest hour (hover to see other rain measurements)
** Current wind speed in m/s (hover to see current wind gust speed)